Miami, FL

2:02 PM EDT on August 24, 2016 (GMT -0400)
JA Richmond West | | Change Station

Elev 7 ft 25.61 °N, 80.43 °W | Updated 20 seconds ago

Scattered Clouds
Scattered Clouds
87.1 °F
Feels Like 100 °F
N
5.8
Wind Variable Wind from ENE
Gusts 5.8 mph

Today
High -- | Low -- °F
--% Chance of Precip.
Yesterday
High -- | Low -- °F
Precip. -- in
Pressure 30.04 in
Visibility 10.0 miles
Clouds Few 4800 ft
Scattered Clouds 9500 ft
Heat Index 100 °F
Dew Point 78 °F
Humidity 75%
Rainfall 0.88 in
Snow Depth Not available.
6:59 AM 7:48 PM
Waning Gibbous, 55% visible
METAR KTMB 241753Z 10007KT 10SM FEW048 SCT095 29/26 A3003 RMK AO2 LTG DSNT NW RAB18E47 SLP170 P0001 60067 T02890261 10294 20256 58012
Pressure 30.04 in
Visibility 10.0 miles
Clouds Few 4800 ft
Scattered Clouds 9500 ft
Heat Index 100 °F
Dew Point 78 °F
Humidity 75%
Rainfall 0.88 in
Snow Depth Not available.
6:59 AM 7:48 PM
Waning Gibbous, 55% visible
METAR KTMB 241753Z 10007KT 10SM FEW048 SCT095 29/26 A3003 RMK AO2 LTG DSNT NW RAB18E47 SLP170 P0001 60067 T02890261 10294 20256 58012
A tropical disturbance we've monitored since last week, may have a dangerous future in store for the southeast U.S. and Gulf coasts this weekend into next week. The National Weather Service has issued a flash flood watch for Puerto Rico and the U.S. Virgin Islands. Rainfall totals of 2-4 inches (locally higher) are expected through Wednesday night in those areas.

The National Hurricane Center says this system has a medium to high chance of development into a tropical depression or tropical storm over the next 2 to 5 days. A tight consensus of our guidance suggests the disturbance should continue in a general west or west-northwest trajectory the next several days.

10-Day Weather Forecast

Almanac

Astronomy

Aug. 24, 2016 Rise Set
Actual Time
Civil Twilight
Nautical Twilight
Astronomical Twilight
Moon
Length of Visible Light
Length of Day
Tomorrow will be .
, % of the Moon is Illuminated

Today's Extremes

State Highs State Lows

Community

WunderPhotos

Upload Photos

1,934,662 photos uploaded!

WunderBlog® & News

Nearby

Air Quality

  Air Quality AQ Index Pollutant
Not available.

Snow Depth

Station Depth Elevation

Earthquake Activity

City Distance Mag. Time & Date
Minimum magnitude displayed is 2.5.

Coastal Water Temperatures

Place Temperature

Stations

Nearby Weather Stations

Station Location Temp. Windchill Dew Point Humidity Wind Precip. Elev Updated Type
                   

Watches & Warnings

There are currently no watches in effect.